createdAt,value
2018-02-02T00:00:05.267Z,6.67
2018-02-02T00:02:33.263Z,6.67
2018-02-02T00:05:01.348Z,6.37
2018-02-02T00:07:29.494Z,6.63
2018-02-02T00:09:57.467Z,6.50
2018-02-02T00:12:25.453Z,6.10
2018-02-02T00:14:53.415Z,6.73
2018-02-02T00:17:21.390Z,6.20
2018-02-02T00:19:49.377Z,5.43
2018-02-02T00:22:17.374Z,5.97
2018-02-02T00:24:45.406Z,5.50
2018-02-02T00:27:13.371Z,6.17
2018-02-02T00:29:41.338Z,5.73
2018-02-02T00:32:09.310Z,5.90
2018-02-02T00:34:37.490Z,6.13
2018-02-02T00:37:05.446Z,6.10
2018-02-02T00:39:33.421Z,5.77
2018-02-02T00:42:01.370Z,5.90
2018-02-02T00:44:29.347Z,5.73
2018-02-02T00:46:57.318Z,6.10
2018-02-02T00:49:25.290Z,5.67
2018-02-02T00:51:59.167Z,6.23
2018-02-02T00:54:27.165Z,6.40
2018-02-02T00:56:55.127Z,5.57
2018-02-02T00:59:23.110Z,6.27
2018-02-02T01:01:51.139Z,5.87
2018-02-02T01:04:19.138Z,5.97
2018-02-02T01:06:47.098Z,6.10
2018-02-02T01:09:15.065Z,6.03
2018-02-02T01:11:43.039Z,6.13
2018-02-02T01:14:11.011Z,5.80
2018-02-02T01:16:39.272Z,5.43
2018-02-02T01:19:07.563Z,5.87
2018-02-02T01:21:35.862Z,6.53
2018-02-02T01:24:04.155Z,5.97
2018-02-02T01:26:32.542Z,5.80
2018-02-02T01:29:00.842Z,5.60
2018-02-02T01:31:29.117Z,5.90
2018-02-02T01:33:57.379Z,5.10
2018-02-02T01:36:25.424Z,5.80
2018-02-02T01:38:53.681Z,5.30
2018-02-02T01:41:21.959Z,5.60
2018-02-02T01:43:50.206Z,5.43
2018-02-02T01:46:18.535Z,4.83
2018-02-02T01:48:46.810Z,5.17
2018-02-02T01:51:15.086Z,4.80
2018-02-02T01:53:43.351Z,4.70
2018-02-02T01:56:11.658Z,4.80
2018-02-02T01:58:39.925Z,4.77
2018-02-02T02:01:08.214Z,4.20
2018-02-02T02:03:36.570Z,4.50
2018-02-02T02:06:04.838Z,4.57
2018-02-02T02:08:33.127Z,4.27
2018-02-02T02:11:01.494Z,4.23
2018-02-02T02:13:29.758Z,4.27
2018-02-02T02:15:58.019Z,3.90
2018-02-02T02:18:26.274Z,3.80
2018-02-02T02:20:54.537Z,4.30
2018-02-02T02:23:22.824Z,3.70
2018-02-02T02:25:51.084Z,4.20
2018-02-02T02:28:19.354Z,4.20
2018-02-02T02:30:47.670Z,4.53
2018-02-02T02:33:15.963Z,3.90
2018-02-02T02:35:44.214Z,4.27
2018-02-02T02:38:12.486Z,4.20
2018-02-02T02:40:40.762Z,4.40
2018-02-02T02:43:09.066Z,4.40
2018-02-02T02:45:37.323Z,4.60
2018-02-02T02:48:05.689Z,3.93
2018-02-02T02:50:33.938Z,4.03
2018-02-02T02:53:02.230Z,4.10
2018-02-02T02:55:35.099Z,4.20
2018-02-02T02:58:03.871Z,4.67
2018-02-02T03:00:32.134Z,4.50
2018-02-02T03:03:00.434Z,4.27
2018-02-02T03:05:28.874Z,4.57
2018-02-02T03:07:57.133Z,4.43
2018-02-02T03:10:25.414Z,4.60
2018-02-02T03:12:53.683Z,5.00
2018-02-02T03:15:21.966Z,5.00
2018-02-02T03:17:50.254Z,5.17
2018-02-02T03:20:18.555Z,5.50
2018-02-02T03:22:46.950Z,6.30
2018-02-02T03:25:15.246Z,6.13
2018-02-02T03:27:43.517Z,5.17
2018-02-02T03:30:11.800Z,5.80
2018-02-02T03:32:40.072Z,5.80
2018-02-02T03:35:08.150Z,5.97
2018-02-02T03:37:36.393Z,5.83
2018-02-02T03:40:04.650Z,5.27
2018-02-02T03:42:32.955Z,5.50
2018-02-02T03:45:01.283Z,5.80
2018-02-02T03:47:29.575Z,4.83
2018-02-02T03:49:58.667Z,4.90
2018-02-02T03:52:26.942Z,4.43
2018-02-02T03:54:55.219Z,4.30
2018-02-02T03:57:23.498Z,3.53
2018-02-02T03:59:55.723Z,2.90
2018-02-02T04:02:24.086Z,3.00
2018-02-02T04:04:52.410Z,2.60
2018-02-02T04:07:20.678Z,6.93
2018-02-02T04:09:49.326Z,3.77
2018-02-02T04:12:17.661Z,3.00
2018-02-02T04:14:47.873Z,3.27
2018-02-02T04:17:16.165Z,3.00
2018-02-02T04:19:44.538Z,2.30
2018-02-02T04:22:12.973Z,2.07
2018-02-02T04:24:41.243Z,2.33
2018-02-02T04:27:09.525Z,1.90
2018-02-02T04:29:37.823Z,1.70
2018-02-02T04:32:06.072Z,1.70
2018-02-02T04:34:34.382Z,1.40
2018-02-02T04:37:02.654Z,1.37
2018-02-02T04:39:31.007Z,1.23
2018-02-02T04:41:59.275Z,1.40
2018-02-02T04:44:27.538Z,1.27
2018-02-02T04:46:57.741Z,1.40
2018-02-02T04:49:25.954Z,1.67
2018-02-02T04:51:54.258Z,1.40
2018-02-02T04:54:23.451Z,1.30
2018-02-02T04:56:52.630Z,1.60
2018-02-02T04:59:20.905Z,1.73
2018-02-02T05:01:49.150Z,2.27
2018-02-02T05:04:17.562Z,2.37
2018-02-02T05:06:45.850Z,2.80
2018-02-02T05:09:14.207Z,3.20
2018-02-02T05:11:42.502Z,3.80
2018-02-02T05:14:10.765Z,4.70
2018-02-02T05:16:39.005Z,5.90
2018-02-02T05:19:07.308Z,5.73
2018-02-02T05:21:35.607Z,6.40
2018-02-02T05:24:03.962Z,6.37
2018-02-02T05:26:32.221Z,7.07
2018-02-02T05:29:00.466Z,6.80
2018-02-02T05:31:28.758Z,5.80
2018-02-02T05:33:57.011Z,6.67
2018-02-02T05:36:25.305Z,17.70
2018-02-02T05:38:53.560Z,10.63
2018-02-02T05:41:21.856Z,7.93
2018-02-02T05:43:50.106Z,8.30
2018-02-02T05:46:18.501Z,9.23
2018-02-02T05:48:46.765Z,9.13
2018-02-02T05:51:15.034Z,8.80
2018-02-02T05:53:43.294Z,9.07
2018-02-02T05:56:11.531Z,8.23
2018-02-02T05:58:39.803Z,9.10
2018-02-02T06:01:08.080Z,8.73
2018-02-02T06:03:36.385Z,8.67
2018-02-02T06:06:04.663Z,9.20
2018-02-02T06:08:33.014Z,8.63
2018-02-02T06:11:01.299Z,9.10
2018-02-02T06:13:29.695Z,8.87
2018-02-02T06:15:59.399Z,8.70
2018-02-02T06:18:27.998Z,9.73
2018-02-02T06:20:56.274Z,9.23
2018-02-02T06:23:24.535Z,9.00
2018-02-02T06:25:52.802Z,8.73
2018-02-02T06:28:23.145Z,8.90
2018-02-02T06:30:51.693Z,8.90
2018-02-02T06:33:20.004Z,8.67
2018-02-02T06:35:48.230Z,8.60
2018-02-02T06:38:16.555Z,8.80
2018-02-02T06:40:44.831Z,9.17
2018-02-02T06:43:13.449Z,8.83
2018-02-02T06:45:41.704Z,7.87
2018-02-02T06:48:10.072Z,7.63
2018-02-02T06:50:38.651Z,7.33
2018-02-02T06:53:06.913Z,82.37
2018-02-02T06:55:35.186Z,17.63
2018-02-02T06:58:03.458Z,11.50
2018-02-02T07:00:32.090Z,7.97
2018-02-02T07:03:00.367Z,9.17
2018-02-02T07:05:32.586Z,8.40
2018-02-02T07:08:00.871Z,7.77
2018-02-02T07:10:29.162Z,13.37
2018-02-02T07:12:57.485Z,9.63
2018-02-02T07:15:25.835Z,10.10
2018-02-02T07:17:54.101Z,9.03
2018-02-02T07:20:22.378Z,8.87
2018-02-02T07:22:50.642Z,8.53
2018-02-02T07:25:18.930Z,77.33
2018-02-02T07:27:47.180Z,8.97
2018-02-02T07:30:15.440Z,9.00
2018-02-02T07:32:43.757Z,11.33
2018-02-02T07:35:12.017Z,10.53
2018-02-02T07:37:40.298Z,8.70
2018-02-02T07:40:09.346Z,8.80
2018-02-02T07:42:37.702Z,8.43
2018-02-02T07:45:05.966Z,8.97
2018-02-02T07:47:34.258Z,8.00
2018-02-02T07:50:02.575Z,7.13
2018-02-02T07:52:30.977Z,7.40
2018-02-02T07:54:59.218Z,7.77
2018-02-02T07:57:27.615Z,7.40
2018-02-02T07:59:55.874Z,7.07
2018-02-02T08:02:24.178Z,6.73
2018-02-02T08:04:52.439Z,6.90
2018-02-02T08:07:20.765Z,5.97
2018-02-02T08:09:49.019Z,5.90
2018-02-02T08:12:17.323Z,6.10
2018-02-02T08:14:45.613Z,6.70
2018-02-02T08:17:13.866Z,5.97
2018-02-02T08:19:42.543Z,5.63
2018-02-02T08:22:10.835Z,6.23
2018-02-02T08:24:39.229Z,72.30
2018-02-02T08:27:07.489Z,25.87
2018-02-02T08:29:35.774Z,5.70
2018-02-02T08:32:04.038Z,5.27
2018-02-02T08:34:32.342Z,5.33
2018-02-02T08:37:00.586Z,5.10
2018-02-02T08:39:28.874Z,5.27
2018-02-02T08:41:57.141Z,6.37
2018-02-02T08:44:25.434Z,4.40
2018-02-02T08:46:53.936Z,4.40
2018-02-02T08:49:22.358Z,3.70
2018-02-02T08:51:50.621Z,2.83
2018-02-02T08:54:18.938Z,3.30
2018-02-02T08:56:47.212Z,2.90
2018-02-02T08:59:16.010Z,2.97
2018-02-02T09:01:50.521Z,2.50
2018-02-02T09:04:18.872Z,2.30
2018-02-02T09:06:47.418Z,2.10
2018-02-02T09:09:15.667Z,2.30
2018-02-02T09:11:43.959Z,1.87
2018-02-02T09:14:12.227Z,1.50
2018-02-02T09:16:40.595Z,1.80
2018-02-02T09:19:08.867Z,50.97
2018-02-02T09:21:37.162Z,1.87
2018-02-02T09:24:05.438Z,1.50
2018-02-02T09:26:33.854Z,1.67
2018-02-02T09:29:02.122Z,1.10
2018-02-02T09:31:30.394Z,1.30
2018-02-02T09:36:36.275Z,4.87
2018-02-02T09:39:04.553Z,1.57
2018-02-02T09:41:32.854Z,1.10
2018-02-02T09:44:01.144Z,1.20
2018-02-02T09:46:29.471Z,1.30
2018-02-02T09:48:57.924Z,1.80
2018-02-02T09:51:28.194Z,2.30
2018-02-02T09:53:56.494Z,2.20
2018-02-02T09:56:25.544Z,2.40
2018-02-02T09:58:54.750Z,2.80
2018-02-02T10:01:23.042Z,6.27
2018-02-02T10:03:51.454Z,3.60
2018-02-02T10:06:19.705Z,3.40
2018-02-02T10:08:47.990Z,3.13
2018-02-02T10:11:16.255Z,3.13
2018-02-02T10:13:44.560Z,3.60
2018-02-02T10:16:12.809Z,4.10
2018-02-02T10:18:41.082Z,3.67
2018-02-02T10:21:09.350Z,4.70
2018-02-02T10:23:37.642Z,4.00
2018-02-02T10:26:06.146Z,4.80
2018-02-02T10:28:34.537Z,5.27
2018-02-02T10:31:02.815Z,4.73
2018-02-02T10:33:35.182Z,5.30
2018-02-02T10:36:05.964Z,5.60
2018-02-02T10:38:34.714Z,6.40
2018-02-02T10:41:03.842Z,6.90
2018-02-02T10:43:32.389Z,6.20
2018-02-02T10:46:00.844Z,6.40
2018-02-02T10:48:29.135Z,6.90
2018-02-02T10:50:57.447Z,7.93
2018-02-02T10:53:25.730Z,8.47
2018-02-02T10:55:59.469Z,7.63
2018-02-02T10:58:39.433Z,8.33
2018-02-02T11:01:14.378Z,10.17
2018-02-02T11:03:49.440Z,10.17
2018-02-02T11:06:17.791Z,37.73
2018-02-02T11:08:46.058Z,10.50
2018-02-02T11:11:14.366Z,10.00
2018-02-02T11:13:42.614Z,9.43
2018-02-02T11:16:10.885Z,9.90
2018-02-02T11:18:39.154Z,10.23
2018-02-02T11:21:07.409Z,9.93
2018-02-02T11:23:35.681Z,10.37
2018-02-02T11:26:03.960Z,10.17
2018-02-02T11:28:32.242Z,10.17
2018-02-02T11:31:00.538Z,9.23
2018-02-02T11:33:28.818Z,10.10
2018-02-02T11:35:57.127Z,13.13
2018-02-02T11:38:25.414Z,9.33
2018-02-02T11:40:53.662Z,8.23
2018-02-02T11:43:21.934Z,8.20
2018-02-02T11:45:50.206Z,8.53
2018-02-02T11:48:18.523Z,9.23
2018-02-02T11:50:46.782Z,8.50
2018-02-02T11:53:15.051Z,8.53
2018-02-02T11:55:43.315Z,9.60
2018-02-02T11:58:11.661Z,10.33
2018-02-02T12:00:39.958Z,9.77
2018-02-02T12:03:08.201Z,9.70
2018-02-02T12:05:41.362Z,9.70
2018-02-02T12:08:09.651Z,10.83
2018-02-02T12:10:38.120Z,12.93
2018-02-02T12:13:06.382Z,12.63
2018-02-02T12:15:34.686Z,9.60
2018-02-02T12:18:02.974Z,8.00
2018-02-02T12:20:31.898Z,7.90
2018-02-02T12:23:15.382Z,7.77
2018-02-02T12:26:03.592Z,7.53
2018-02-02T12:28:38.364Z,7.73
2018-02-02T12:31:12.715Z,7.90
2018-02-02T12:33:56.926Z,7.20
2018-02-02T12:36:29.242Z,6.60
2018-02-02T12:38:57.535Z,5.83
2018-02-02T12:41:25.850Z,3.90
2018-02-02T12:43:54.115Z,3.80
2018-02-02T12:46:22.486Z,3.80
2018-02-02T12:48:56.753Z,3.00
2018-02-02T12:51:25.030Z,3.37
2018-02-02T12:53:54.075Z,4.00
2018-02-02T12:56:22.468Z,6.47
2018-02-02T12:58:50.761Z,7.23
2018-02-02T13:01:19.023Z,9.63
2018-02-02T13:03:47.357Z,5.47
2018-02-02T13:06:16.234Z,5.10
2018-02-02T13:08:44.485Z,4.77
2018-02-02T13:11:12.774Z,5.47
2018-02-02T13:13:43.310Z,5.63
2018-02-02T13:16:11.554Z,2.80
2018-02-02T13:18:41.067Z,6.33
2018-02-02T13:21:09.395Z,3.00
2018-02-02T13:23:37.954Z,4.97
2018-02-02T13:26:06.246Z,8.50
2018-02-02T13:28:34.551Z,5.27
2018-02-02T13:31:02.815Z,14.13
2018-02-02T13:33:31.281Z,5.80
2018-02-02T13:35:59.575Z,5.60
2018-02-02T13:38:27.854Z,3.53
2018-02-02T13:40:56.495Z,4.90
2018-02-02T13:43:24.854Z,3.87
2018-02-02T13:45:53.454Z,10.57
2018-02-02T13:48:21.725Z,4.40
2018-02-02T13:50:50.050Z,4.23
2018-02-02T13:53:18.339Z,3.60
2018-02-02T13:55:46.803Z,4.30
2018-02-02T13:58:15.061Z,4.30
2018-02-02T14:00:43.411Z,3.90
2018-02-02T14:03:11.685Z,4.47
2018-02-02T14:05:41.078Z,4.00
2018-02-02T14:08:09.364Z,3.97
2018-02-02T14:10:40.550Z,2.70
2018-02-02T14:13:08.800Z,3.63
2018-02-02T14:15:37.354Z,2.27
2018-02-02T14:18:05.637Z,2.20
2018-02-02T14:20:33.904Z,1.90
2018-02-02T14:23:02.170Z,1.93
2018-02-02T14:25:30.482Z,3.93
2018-02-02T14:27:58.747Z,5.20
2018-02-02T14:30:27.143Z,1.20
2018-02-02T14:32:55.415Z,1.60
2018-02-02T14:35:23.686Z,1.53
2018-02-02T14:37:51.938Z,1.23
2018-02-02T14:40:20.385Z,1.47
2018-02-02T14:42:49.489Z,1.30
2018-02-02T14:45:19.699Z,1.10
2018-02-02T14:47:48.070Z,1.80
2018-02-02T14:50:16.357Z,1.50
2018-02-02T14:52:44.643Z,1.70
2018-02-02T14:55:12.891Z,1.20
2018-02-02T14:57:41.463Z,1.70
2018-02-02T15:00:09.734Z,1.10
2018-02-02T15:02:38.039Z,1.10
2018-02-02T15:05:06.310Z,1.20
2018-02-02T15:07:34.597Z,1.67
2018-02-02T15:10:02.883Z,1.60
2018-02-02T15:12:31.182Z,2.60
2018-02-02T15:14:59.442Z,3.27
2018-02-02T15:17:27.718Z,5.90
2018-02-02T15:19:56.282Z,2.70
2018-02-02T15:22:25.378Z,3.10
2018-02-02T15:24:59.562Z,3.67
2018-02-02T15:27:27.836Z,3.50
2018-02-02T15:29:56.115Z,3.20
2018-02-02T15:32:24.386Z,3.30
2018-02-02T15:34:52.774Z,3.43
2018-02-02T15:37:21.046Z,3.40
2018-02-02T15:39:50.170Z,4.13
2018-02-02T15:42:18.610Z,4.00
2018-02-02T15:44:46.870Z,3.90
2018-02-02T15:47:15.110Z,4.00
2018-02-02T15:49:43.382Z,4.33
2018-02-02T15:52:11.661Z,4.93
2018-02-02T15:54:40.125Z,4.30
2018-02-02T15:57:08.394Z,4.93
2018-02-02T15:59:36.667Z,5.20
2018-02-02T16:02:04.918Z,4.90
2018-02-02T16:04:33.450Z,6.17
2018-02-02T16:07:01.714Z,5.30
2018-02-02T16:09:29.999Z,10.40
2018-02-02T16:11:58.246Z,6.33
2018-02-02T16:14:26.514Z,6.20
2018-02-02T16:16:54.818Z,6.83
2018-02-02T16:19:23.343Z,6.60
2018-02-02T16:21:51.613Z,6.83
2018-02-02T16:24:20.436Z,6.30
2018-02-02T16:26:48.691Z,5.80
2018-02-02T16:29:18.086Z,6.20
2018-02-02T16:31:46.374Z,7.50
2018-02-02T16:34:14.652Z,8.23
2018-02-02T16:36:43.150Z,8.43
2018-02-02T16:39:11.919Z,7.30
2018-02-02T16:41:40.264Z,7.70
2018-02-02T16:44:08.534Z,7.93
2018-02-02T16:46:36.830Z,8.00
2018-02-02T16:49:05.090Z,7.93
2018-02-02T16:51:33.414Z,11.33
2018-02-02T16:54:01.701Z,10.47
2018-02-02T16:56:30.024Z,12.23
2018-02-02T16:59:01.223Z,9.60
2018-02-02T17:01:29.953Z,9.67
2018-02-02T17:03:58.278Z,10.13
2018-02-02T17:06:26.613Z,10.53
2018-02-02T17:08:55.395Z,10.77
2018-02-02T17:11:23.713Z,11.67
2018-02-02T17:13:51.998Z,11.43
2018-02-02T17:16:20.275Z,12.50
2018-02-02T17:18:48.806Z,12.53
2018-02-02T17:21:17.070Z,13.27
2018-02-02T17:23:45.534Z,13.80
2018-02-02T17:26:13.794Z,13.07
2018-02-02T17:28:42.623Z,13.40
2018-02-02T17:31:10.881Z,12.73
2018-02-02T17:33:44.130Z,13.13
2018-02-02T17:36:12.370Z,12.23
2018-02-02T17:38:40.663Z,13.07
2018-02-02T17:41:08.922Z,11.20
2018-02-02T17:43:37.413Z,12.70
2018-02-02T17:46:05.642Z,12.00
2018-02-02T17:48:33.946Z,12.20
2018-02-02T17:51:02.198Z,12.13
2018-02-02T17:53:30.489Z,12.50
2018-02-02T17:55:58.926Z,12.63
2018-02-02T17:58:27.185Z,12.30
2018-02-02T18:00:55.498Z,12.93
2018-02-02T18:03:23.802Z,13.37
2018-02-02T18:05:52.126Z,13.00
2018-02-02T18:08:20.814Z,14.10
2018-02-02T18:10:49.088Z,14.87
2018-02-02T18:13:17.338Z,14.17
2018-02-02T18:15:45.614Z,16.20
2018-02-02T18:18:13.886Z,14.30
2018-02-02T18:20:42.185Z,14.47
2018-02-02T18:23:10.422Z,13.93
2018-02-02T18:25:38.686Z,14.43
2018-02-02T18:28:07.815Z,14.73
2018-02-02T18:30:36.097Z,13.93
2018-02-02T18:33:04.362Z,16.23
2018-02-02T18:35:32.634Z,15.00
2018-02-02T18:38:02.098Z,15.47
2018-02-02T18:40:30.391Z,15.33
2018-02-02T18:42:59.539Z,15.93
2018-02-02T18:45:27.795Z,15.37
2018-02-02T18:47:56.063Z,16.57
2018-02-02T18:50:25.095Z,16.73
2018-02-02T18:52:53.767Z,17.50
2018-02-02T18:55:22.149Z,17.53
2018-02-02T18:57:50.422Z,17.67
2018-02-02T19:00:18.678Z,18.53
2018-02-02T19:02:47.120Z,18.10
2018-02-02T19:05:15.370Z,17.70
2018-02-02T19:07:43.846Z,17.70
2018-02-02T19:10:12.085Z,18.27
2018-02-02T19:12:40.818Z,19.00
2018-02-02T19:15:09.066Z,19.20
2018-02-02T19:17:37.330Z,19.50
2018-02-02T19:20:05.647Z,18.80
2018-02-02T19:22:34.246Z,18.90
2018-02-02T19:25:02.531Z,19.77
2018-02-02T19:27:30.822Z,20.30
2018-02-02T19:30:00.207Z,21.07
2018-02-02T19:32:28.481Z,21.47
2018-02-02T19:34:56.828Z,21.23
2018-02-02T19:37:25.134Z,21.80
2018-02-02T19:39:53.414Z,22.33
2018-02-02T19:42:21.930Z,21.63
2018-02-02T19:44:50.237Z,21.87
2018-02-02T19:47:33.446Z,22.60
2018-02-02T19:50:02.010Z,23.10
2018-02-02T19:52:31.617Z,23.43
2018-02-02T19:54:59.953Z,22.23
2018-02-02T19:57:28.270Z,22.83
2018-02-02T19:59:56.804Z,22.37
2018-02-02T20:02:26.255Z,22.10
2018-02-02T20:04:54.672Z,23.30
2018-02-02T20:07:23.377Z,23.60
2018-02-02T20:09:54.325Z,24.83
2018-02-02T20:12:23.139Z,23.17
2018-02-02T20:14:51.719Z,23.77
2018-02-02T20:17:21.134Z,21.60
2018-02-02T20:19:49.710Z,21.87
2018-02-02T20:22:18.241Z,22.07
2018-02-02T20:24:46.547Z,22.50
2018-02-02T20:27:15.743Z,20.87
2018-02-02T20:29:44.102Z,21.70
2018-02-02T20:32:12.370Z,21.67
2018-02-02T20:34:40.651Z,22.33
2018-02-02T20:37:08.914Z,22.00
2018-02-02T20:39:37.403Z,23.07
2018-02-02T20:42:06.234Z,23.43
2018-02-02T20:44:34.662Z,23.97
2018-02-02T20:47:03.033Z,22.80
2018-02-02T20:49:31.366Z,22.50
2018-02-02T20:52:00.558Z,23.07
2018-02-02T20:54:30.720Z,23.70
2018-02-02T20:57:00.110Z,23.37
2018-02-02T20:59:28.997Z,23.67
2018-02-02T21:01:57.379Z,24.30
2018-02-02T21:04:25.651Z,24.23
2018-02-02T21:06:53.941Z,25.23
2018-02-02T21:09:22.318Z,27.60
2018-02-02T21:11:50.598Z,23.37
2018-02-02T21:14:18.849Z,23.47
2018-02-02T21:16:47.729Z,21.63
2018-02-02T21:19:16.096Z,23.27
2018-02-02T21:21:44.408Z,22.60
2018-02-02T21:24:12.671Z,21.57
2018-02-02T21:26:41.082Z,22.57
2018-02-02T21:29:10.472Z,22.60
2018-02-02T21:31:38.743Z,20.77
2018-02-02T21:34:07.019Z,22.50
2018-02-02T21:36:35.285Z,21.80
2018-02-02T21:39:03.642Z,21.83
2018-02-02T21:41:31.910Z,21.90
2018-02-02T21:44:00.206Z,21.20
2018-02-02T21:46:28.479Z,21.67
2018-02-02T21:48:56.875Z,22.33
2018-02-02T21:51:25.146Z,21.90
2018-02-02T21:53:53.446Z,21.93
2018-02-02T21:56:21.710Z,21.10
2018-02-02T21:58:50.025Z,21.77
2018-02-02T22:01:18.300Z,21.13
2018-02-02T22:03:46.591Z,22.13
2018-02-02T22:06:14.851Z,21.53
2018-02-02T22:08:43.986Z,21.67
2018-02-02T22:11:12.244Z,22.10
2018-02-02T22:13:43.646Z,22.03
2018-02-02T22:16:11.911Z,22.33
2018-02-02T22:18:40.210Z,22.70
2018-02-02T22:21:09.482Z,22.13
2018-02-02T22:23:37.755Z,22.40
2018-02-02T22:26:06.051Z,23.60
2018-02-02T22:28:34.399Z,22.27
2018-02-02T22:31:02.677Z,22.73
2018-02-02T22:33:31.144Z,23.73
2018-02-02T22:35:59.744Z,24.43
2018-02-02T22:38:29.214Z,23.27
2018-02-02T22:40:58.451Z,23.30
2018-02-02T22:43:28.214Z,23.43
2018-02-02T22:45:57.216Z,22.93
2018-02-02T22:48:25.610Z,22.40
2018-02-02T22:50:53.890Z,22.50
2018-02-02T22:53:23.524Z,24.43
2018-02-02T22:55:51.801Z,23.70
2018-02-02T22:58:20.117Z,23.63
2018-02-02T23:00:48.403Z,23.63
2018-02-02T23:03:16.669Z,24.17
2018-02-02T23:05:44.962Z,22.63
2018-02-02T23:08:13.214Z,23.90
2018-02-02T23:10:41.522Z,22.20
2018-02-02T23:13:09.833Z,22.57
2018-02-02T23:15:38.101Z,21.20
2018-02-02T23:18:06.821Z,23.17
2018-02-02T23:20:35.325Z,23.23
2018-02-02T23:23:18.641Z,22.20
2018-02-02T23:25:47.060Z,22.63
2018-02-02T23:28:15.346Z,21.60
2018-02-02T23:30:44.958Z,22.20
2018-02-02T23:33:13.260Z,22.17
2018-02-02T23:35:41.530Z,21.23
2018-02-02T23:38:09.811Z,19.97
2018-02-02T23:40:38.082Z,20.93
2018-02-02T23:43:06.456Z,21.37
2018-02-02T23:45:34.714Z,20.13
2018-02-02T23:48:03.034Z,19.57
2018-02-02T23:50:31.287Z,18.97
2018-02-02T23:52:59.570Z,19.53
2018-02-02T23:55:27.814Z,18.53
2018-02-02T23:57:56.127Z,18.40
